Spicewood's Hourly Summary for Wednesday, July 11, 2018
Hour Temp
(f)
RH
(%)
Solar Rad.
(MJ/m2)
Rainfall
(in)
Wind
(mph)
7/11/2018 12:00 AM 80 74 0 0 2.02
7/11/2018 1:00 AM 80 81 0 0 4.24
7/11/2018 2:00 AM 78 85 0 0 2.37
7/11/2018 3:00 AM 77 86 0 0 2.87
7/11/2018 4:00 AM 76 86 0 0 1.84
7/11/2018 5:00 AM 76 91 0 0 1.14
7/11/2018 6:00 AM 75 94 0 0 0.62
7/11/2018 7:00 AM 74 94 0.01 0 0.51
7/11/2018 8:00 AM 77 90 0.32 0 0.85
7/11/2018 9:00 AM 80 82 0.57 0 1.45
7/11/2018 10:00 AM 83 76 1.46 0 3.66
7/11/2018 11:00 AM 87 54 0 0 0
7/11/2018 12:00 PM 89 54 1.31 0 3.62
7/11/2018 1:00 PM 91 44 2.89 0 4.08
7/11/2018 2:00 PM 93 39 3.23 0 5.22
7/11/2018 3:00 PM 93 39 2.79 0 4.35
7/11/2018 4:00 PM 94 39 2.48 0 4.75
7/11/2018 5:00 PM 94 38 2.02 0 4.49
7/11/2018 6:00 PM 94 38 1.56 0 4.76
7/11/2018 7:00 PM 93 41 1.03 0 5.32
7/11/2018 8:00 PM 92 46 0.49 0 5.49
7/11/2018 9:00 PM 88 52 0.05 0 3.47
7/11/2018 10:00 PM 85 57 0 0 1.61
7/11/2018 11:00 PM 83 62 0 0 1.32
Data Summary 84 64 20.21 0.00 2.92